createdAt,value
2018-08-10T00:01:07.166Z,95671.01
2018-08-10T00:03:33.806Z,95672.84
2018-08-10T00:06:00.439Z,95670.06
2018-08-10T00:08:27.091Z,95667.69
2018-08-10T00:10:53.730Z,95673.23
2018-08-10T00:13:20.419Z,95673.95
2018-08-10T00:15:47.061Z,95673.20
2018-08-10T00:18:13.701Z,95687.41
2018-08-10T00:20:40.336Z,95682.95
2018-08-10T00:23:07.010Z,95683.55
2018-08-10T00:25:33.643Z,95681.14
2018-08-10T00:28:00.283Z,95682.41
2018-08-10T00:30:26.985Z,95687.63
2018-08-10T00:32:53.622Z,95682.03
2018-08-10T00:35:20.313Z,95683.27
2018-08-10T00:37:46.947Z,95692.03
2018-08-10T00:40:13.575Z,95694.56
2018-08-10T00:42:40.272Z,95693.17
2018-08-10T00:45:06.912Z,95676.74
2018-08-10T00:47:33.556Z,95685.10
2018-08-10T00:50:00.269Z,95683.04
2018-08-10T00:52:26.913Z,95679.50
2018-08-10T00:54:53.598Z,95678.33
2018-08-10T00:57:20.233Z,95673.00
2018-08-10T00:59:46.908Z,95681.42
2018-08-10T01:02:13.582Z,95677.28
2018-08-10T01:04:40.272Z,95682.06
2018-08-10T01:07:06.894Z,95682.76
2018-08-10T01:09:33.621Z,95678.89
2018-08-10T01:12:00.277Z,95678.36
2018-08-10T01:14:26.959Z,95673.67
2018-08-10T01:16:53.598Z,95668.98
2018-08-10T01:19:20.442Z,95674.14
2018-08-10T01:21:46.931Z,95673.29
2018-08-10T01:24:13.611Z,95671.99
2018-08-10T01:26:40.281Z,95673.13
2018-08-10T01:29:06.918Z,95674.78
2018-08-10T01:31:33.581Z,95675.57
2018-08-10T01:34:00.271Z,95681.27
2018-08-10T01:36:26.911Z,95668.92
2018-08-10T01:38:53.587Z,95667.08
2018-08-10T01:41:20.268Z,95666.83
2018-08-10T01:43:46.903Z,95679.72
2018-08-10T01:46:13.608Z,95683.90
2018-08-10T01:48:40.295Z,95679.97
2018-08-10T01:51:06.964Z,95677.06
2018-08-10T01:53:33.671Z,95679.09
2018-08-10T01:56:00.313Z,95680.06
2018-08-10T01:58:26.946Z,95678.33
2018-08-10T02:00:53.625Z,95673.13
2018-08-10T02:03:20.261Z,95673.77
2018-08-10T02:05:46.947Z,95680.95
2018-08-10T02:08:13.576Z,95684.44
2018-08-10T02:10:40.255Z,95678.98
2018-08-10T02:13:06.896Z,95688.52
2018-08-10T02:15:33.561Z,95664.36
2018-08-10T02:18:00.210Z,95685.64
2018-08-10T02:20:26.853Z,95688.70
2018-08-10T02:22:53.500Z,95685.06
2018-08-10T02:25:20.162Z,95687.95
2018-08-10T02:27:46.793Z,95690.99
2018-08-10T02:30:13.437Z,95694.03
2018-08-10T02:32:40.120Z,95696.19
2018-08-10T02:35:06.855Z,95698.08
2018-08-10T02:37:33.487Z,95702.52
2018-08-10T02:40:00.200Z,95709.61
2018-08-10T02:42:26.836Z,95704.32
2018-08-10T02:44:53.462Z,95708.59
2018-08-10T02:47:20.122Z,95703.78
2018-08-10T02:49:46.808Z,95706.09
2018-08-10T02:52:13.449Z,95715.59
2018-08-10T02:54:40.122Z,95715.72
2018-08-10T02:57:06.761Z,95723.16
2018-08-10T02:59:33.437Z,95719.90
2018-08-10T03:02:00.075Z,95716.09
2018-08-10T03:04:26.804Z,95712.30
2018-08-10T03:06:53.414Z,95716.38
2018-08-10T03:09:20.078Z,95722.59
2018-08-10T03:11:46.753Z,95711.54
2018-08-10T03:14:13.420Z,95713.24
2018-08-10T03:16:40.095Z,95715.77
2018-08-10T03:19:06.702Z,95717.39
2018-08-10T03:21:33.382Z,95723.53
2018-08-10T03:24:00.036Z,95724.08
2018-08-10T03:26:26.723Z,95725.02
2018-08-10T03:28:53.376Z,95729.80
2018-08-10T03:31:20.017Z,95723.72
2018-08-10T03:33:46.683Z,95725.94
2018-08-10T03:36:13.364Z,95730.36
2018-08-10T03:38:39.998Z,95729.91
2018-08-10T03:41:06.684Z,95725.96
2018-08-10T03:43:33.346Z,95725.51
2018-08-10T03:45:59.992Z,95729.86
2018-08-10T03:48:26.681Z,95724.84
2018-08-10T03:50:53.367Z,95728.75
2018-08-10T03:53:20.053Z,95734.19
2018-08-10T03:55:46.731Z,95732.58
2018-08-10T03:58:13.369Z,95729.56
2018-08-10T04:00:40.082Z,95733.55
2018-08-10T04:03:06.687Z,95741.26
2018-08-10T04:05:33.319Z,95750.02
2018-08-10T04:07:59.989Z,95750.83
2018-08-10T04:10:26.618Z,95745.64
2018-08-10T04:12:53.290Z,95749.50
2018-08-10T04:15:19.978Z,95742.23
2018-08-10T04:17:46.660Z,95744.32
2018-08-10T04:20:13.300Z,95745.02
2018-08-10T04:22:39.936Z,95743.13
2018-08-10T04:25:06.624Z,95742.95
2018-08-10T04:27:33.269Z,95739.30
2018-08-10T04:29:59.905Z,95747.00
2018-08-10T04:32:26.606Z,95737.17
2018-08-10T04:34:53.280Z,95743.42
2018-08-10T04:37:19.977Z,95744.23
2018-08-10T04:39:46.611Z,95741.37
2018-08-10T04:42:13.351Z,95742.26
2018-08-10T04:44:39.999Z,95743.52
2018-08-10T04:47:06.636Z,95743.24
2018-08-10T04:49:33.334Z,95752.11
2018-08-10T04:51:59.977Z,95748.37
2018-08-10T04:54:28.864Z,95749.73
2018-08-10T04:56:55.555Z,95750.47
2018-08-10T04:59:22.240Z,95748.19
2018-08-10T05:01:48.889Z,95748.06
2018-08-10T05:04:15.575Z,95756.39
2018-08-10T05:06:42.267Z,95757.41
2018-08-10T05:09:08.953Z,95763.07
2018-08-10T05:11:35.590Z,95765.70
2018-08-10T05:14:02.243Z,95765.80
2018-08-10T05:16:28.926Z,95768.42
2018-08-10T05:18:55.567Z,95768.45
2018-08-10T05:21:22.227Z,95755.94
2018-08-10T05:23:48.853Z,95765.28
2018-08-10T05:26:15.492Z,95771.11
2018-08-10T05:28:42.156Z,95767.34
2018-08-10T05:31:08.806Z,95767.33
2018-08-10T05:33:35.456Z,95758.42
2018-08-10T05:36:02.104Z,95764.51
2018-08-10T05:38:28.763Z,95762.19
2018-08-10T05:40:55.400Z,95769.27
2018-08-10T05:43:22.037Z,95754.78
2018-08-10T05:45:48.685Z,95756.05
2018-08-10T05:48:15.324Z,95759.20
2018-08-10T05:50:41.966Z,95769.65
2018-08-10T05:53:08.596Z,95764.64
2018-08-10T05:55:35.231Z,95764.36
2018-08-10T05:58:01.873Z,95766.77
2018-08-10T06:00:28.517Z,95766.00
2018-08-10T06:02:55.155Z,95772.47
2018-08-10T06:05:21.828Z,95775.90
2018-08-10T06:07:48.476Z,95782.38
2018-08-10T06:10:15.111Z,95771.71
2018-08-10T06:12:41.753Z,95773.41
2018-08-10T06:15:08.391Z,95779.88
2018-08-10T06:17:35.033Z,95782.38
2018-08-10T06:20:01.843Z,95780.98
2018-08-10T06:22:28.350Z,95774.89
2018-08-10T06:24:55.046Z,95779.84
2018-08-10T06:27:21.635Z,95784.61
2018-08-10T06:29:48.265Z,95777.63
2018-08-10T06:32:17.762Z,95776.95
2018-08-10T06:34:44.415Z,95775.14
2018-08-10T06:37:11.077Z,95775.56
2018-08-10T06:39:37.736Z,95780.25
2018-08-10T06:42:04.365Z,95778.73
2018-08-10T06:44:31.013Z,95784.61
2018-08-10T06:46:57.707Z,95781.56
2018-08-10T06:49:24.367Z,95778.27
2018-08-10T06:51:51.043Z,95778.44
2018-08-10T06:54:17.723Z,95781.78
2018-08-10T06:56:44.325Z,95782.23
2018-08-10T06:59:10.970Z,95782.66
2018-08-10T07:01:37.649Z,95779.88
2018-08-10T07:04:04.260Z,95777.81
2018-08-10T07:06:30.903Z,95775.86
2018-08-10T07:09:00.213Z,95780.38
2018-08-10T07:11:26.868Z,95779.52
2018-08-10T07:13:53.536Z,95765.23
2018-08-10T07:16:20.162Z,95779.49
2018-08-10T07:18:46.802Z,95781.48
2018-08-10T07:21:13.464Z,95776.66
2018-08-10T07:23:40.138Z,95766.69
2018-08-10T07:26:06.767Z,95775.27
2018-08-10T07:28:33.427Z,95769.47
2018-08-10T07:31:00.029Z,95768.67
2018-08-10T07:33:26.676Z,95777.33
2018-08-10T07:35:53.348Z,95769.97
2018-08-10T07:38:19.996Z,95771.20
2018-08-10T07:40:46.668Z,95777.55
2018-08-10T07:43:13.325Z,95775.14
2018-08-10T07:45:39.998Z,95775.14
2018-08-10T07:48:07.709Z,95779.37
2018-08-10T07:50:34.341Z,95782.62
2018-08-10T07:53:00.984Z,95781.48
2018-08-10T07:55:27.634Z,95777.97
2018-08-10T07:57:54.331Z,95775.35
2018-08-10T08:00:21.018Z,95776.15
2018-08-10T08:02:47.673Z,95781.02
2018-08-10T08:05:14.312Z,95782.45
2018-08-10T08:07:40.964Z,95776.82
2018-08-10T08:10:07.660Z,95783.45
2018-08-10T08:12:34.308Z,95775.98
2018-08-10T08:15:00.961Z,95786.05
2018-08-10T08:17:28.425Z,95780.34
2018-08-10T08:19:55.085Z,95779.23
2018-08-10T08:22:21.721Z,95773.48
2018-08-10T08:24:48.386Z,95773.32
2018-08-10T08:27:15.083Z,95775.60
2018-08-10T08:29:41.739Z,95775.12
2018-08-10T08:32:08.379Z,95771.50
2018-08-10T08:34:35.077Z,95767.95
2018-08-10T08:37:01.757Z,95766.76
2018-08-10T08:39:28.322Z,95772.95
2018-08-10T08:41:54.965Z,95776.23
2018-08-10T08:44:21.612Z,95769.00
2018-08-10T08:46:48.247Z,95775.98
2018-08-10T08:49:14.896Z,95768.79
2018-08-10T08:51:41.536Z,95772.81
2018-08-10T08:54:08.221Z,95771.72
2018-08-10T08:56:34.816Z,95774.93
2018-08-10T08:59:01.445Z,95770.22
2018-08-10T09:01:28.087Z,95764.52
2018-08-10T09:03:54.728Z,95765.26
2018-08-10T09:06:21.362Z,95764.92
2018-08-10T09:08:48.040Z,95772.24
2018-08-10T09:11:14.637Z,95771.67
2018-08-10T09:13:41.352Z,95777.96
2018-08-10T09:16:07.992Z,95775.31
2018-08-10T09:18:34.642Z,95779.12
2018-08-10T09:21:01.285Z,95772.85
2018-08-10T09:23:28.036Z,95776.66
2018-08-10T09:25:54.597Z,95769.09
2018-08-10T09:28:21.235Z,95767.36
2018-08-10T09:30:47.898Z,95755.98
2018-08-10T09:33:14.544Z,95755.39
2018-08-10T09:35:41.319Z,95762.32
2018-08-10T09:38:07.951Z,95769.02
2018-08-10T09:40:34.593Z,95753.45
2018-08-10T09:43:01.241Z,95752.77
2018-08-10T09:45:27.941Z,95748.83
2018-08-10T09:47:54.548Z,95749.47
2018-08-10T09:50:21.321Z,95747.83
2018-08-10T09:52:48.003Z,95748.02
2018-08-10T09:55:14.635Z,95750.98
2018-08-10T09:57:41.272Z,95750.39
2018-08-10T10:00:07.947Z,95742.03
2018-08-10T10:02:34.543Z,95745.45
2018-08-10T10:05:01.218Z,95751.20
2018-08-10T10:07:28.015Z,95739.87
2018-08-10T10:09:54.653Z,95747.27
2018-08-10T10:12:21.287Z,95743.25
2018-08-10T10:14:47.936Z,95738.21
2018-08-10T10:17:14.566Z,95737.98
2018-08-10T10:19:41.247Z,95739.33
2018-08-10T10:22:07.887Z,95733.72
2018-08-10T10:24:34.520Z,95736.67
2018-08-10T10:27:01.194Z,95739.13
2018-08-10T10:29:27.952Z,95739.55
2018-08-10T10:31:54.636Z,95736.67
2018-08-10T10:34:21.277Z,95744.39
2018-08-10T10:36:47.916Z,95743.13
2018-08-10T10:39:14.573Z,95734.59
2018-08-10T10:41:41.256Z,95736.23
2018-08-10T10:44:07.894Z,95721.73
2018-08-10T10:46:34.536Z,95724.55
2018-08-10T10:49:01.190Z,95721.97
2018-08-10T10:51:27.827Z,95722.75
2018-08-10T10:53:54.504Z,95717.44
2018-08-10T10:56:21.122Z,95717.76
2018-08-10T10:58:47.763Z,95715.64
2018-08-10T11:01:14.402Z,95717.80
2018-08-10T11:03:41.050Z,95714.77
2018-08-10T11:06:07.698Z,95709.44
2018-08-10T11:08:34.335Z,95706.47
2018-08-10T11:11:02.462Z,95705.66
2018-08-10T11:13:27.624Z,95701.48
2018-08-10T11:15:54.261Z,95700.92
2018-08-10T11:18:21.003Z,95693.05
2018-08-10T11:20:47.646Z,95695.04
2018-08-10T11:23:14.280Z,95693.73
2018-08-10T11:25:41.025Z,95691.39
2018-08-10T11:28:07.657Z,95697.27
2018-08-10T11:30:34.299Z,95690.57
2018-08-10T11:33:00.952Z,95688.98
2018-08-10T11:35:27.658Z,95691.62
2018-08-10T11:37:54.361Z,95689.86
2018-08-10T11:40:21.003Z,95698.91
2018-08-10T11:42:47.645Z,95694.25
2018-08-10T11:45:14.303Z,95695.57
2018-08-10T11:47:40.941Z,95690.00
2018-08-10T11:50:07.623Z,95687.58
2018-08-10T11:52:34.306Z,95691.91
2018-08-10T11:55:01.324Z,95689.19
2018-08-10T11:57:27.968Z,95686.45
2018-08-10T11:59:54.615Z,95680.36
2018-08-10T12:02:21.217Z,95672.84
2018-08-10T12:04:47.856Z,95674.01
2018-08-10T12:07:14.507Z,95674.74
2018-08-10T12:09:41.142Z,95666.10
2018-08-10T12:12:07.829Z,95663.75
2018-08-10T12:14:34.457Z,95657.79
2018-08-10T12:17:01.112Z,95663.78
2018-08-10T12:19:27.748Z,95660.30
2018-08-10T12:21:54.388Z,95657.71
2018-08-10T12:24:21.035Z,95638.09
2018-08-10T12:26:47.664Z,95656.65
2018-08-10T12:29:14.341Z,95644.85
2018-08-10T12:31:40.990Z,95641.98
2018-08-10T12:34:07.644Z,95630.47
2018-08-10T12:36:34.285Z,95646.73
2018-08-10T12:39:00.946Z,95645.86
2018-08-10T12:41:30.302Z,95644.31
2018-08-10T12:43:56.934Z,95642.19
2018-08-10T12:46:23.622Z,95642.86
2018-08-10T12:48:50.238Z,95639.45
2018-08-10T12:51:16.966Z,95639.70
2018-08-10T12:53:43.647Z,95639.32
2018-08-10T12:56:10.305Z,95638.09
2018-08-10T12:58:36.944Z,95641.78
2018-08-10T13:01:03.589Z,95638.02
2018-08-10T13:03:30.236Z,95636.74
2018-08-10T13:05:56.928Z,95635.90
2018-08-10T13:08:23.565Z,95632.27
2018-08-10T13:10:50.243Z,95629.64
2018-08-10T13:13:16.880Z,95639.53
2018-08-10T13:15:43.506Z,95629.95
2018-08-10T13:18:10.185Z,95628.03
2018-08-10T13:20:36.888Z,95633.95
2018-08-10T13:23:03.526Z,95631.59
2018-08-10T13:25:30.150Z,95622.72
2018-08-10T13:27:56.824Z,95618.53
2018-08-10T13:30:23.461Z,95629.77
2018-08-10T13:32:50.122Z,95632.53
2018-08-10T13:35:16.785Z,95630.20
2018-08-10T13:37:46.020Z,95635.52
2018-08-10T13:40:12.660Z,95639.95
2018-08-10T13:42:39.324Z,95635.34
2018-08-10T13:45:05.978Z,95630.61
2018-08-10T13:47:32.682Z,95633.73
2018-08-10T13:49:59.363Z,95633.14
2018-08-10T13:52:26.022Z,95627.02
2018-08-10T13:54:52.656Z,95626.47
2018-08-10T13:57:19.306Z,95632.22
2018-08-10T13:59:45.938Z,95635.84
2018-08-10T14:02:12.665Z,95641.15
2018-08-10T14:04:39.298Z,95639.23
2018-08-10T14:07:05.986Z,95637.12
2018-08-10T14:09:32.624Z,95635.49
2018-08-10T14:11:59.255Z,95644.36
2018-08-10T14:14:25.930Z,95644.80
2018-08-10T14:16:52.533Z,95643.41
2018-08-10T14:19:19.276Z,95640.12
2018-08-10T14:21:45.899Z,95634.00
2018-08-10T14:24:12.552Z,95633.84
2018-08-10T14:26:39.220Z,95633.70
2018-08-10T14:29:05.863Z,95635.11
2018-08-10T14:31:32.526Z,95635.88
2018-08-10T14:33:59.170Z,95641.06
2018-08-10T14:36:25.801Z,95640.06
2018-08-10T14:38:52.442Z,95638.66
2018-08-10T14:41:19.134Z,95639.47
2018-08-10T14:43:45.712Z,95635.63
2018-08-10T14:46:12.430Z,95642.00
2018-08-10T14:48:39.083Z,95638.63
2018-08-10T14:51:05.766Z,95641.77
2018-08-10T14:53:32.451Z,95646.11
2018-08-10T14:55:59.086Z,95648.78
2018-08-10T14:58:25.733Z,95652.45
2018-08-10T15:00:52.382Z,95651.19
2018-08-10T15:03:19.014Z,95657.61
2018-08-10T15:05:45.689Z,95654.74
2018-08-10T15:08:12.332Z,95659.38
2018-08-10T15:10:38.969Z,95660.78
2018-08-10T15:13:05.803Z,95658.94
2018-08-10T15:15:32.286Z,95654.02
2018-08-10T15:17:59.047Z,95651.33
2018-08-10T15:20:25.706Z,95654.02
2018-08-10T15:22:52.392Z,95652.12
2018-08-10T15:25:18.995Z,95654.70
2018-08-10T15:27:45.630Z,95650.12
2018-08-10T15:30:12.269Z,95654.27
2018-08-10T15:32:38.912Z,95655.14
2018-08-10T15:35:05.601Z,95650.32
2018-08-10T15:37:32.242Z,95658.05
2018-08-10T15:39:58.889Z,95650.06
2018-08-10T15:42:25.528Z,95659.98
2018-08-10T15:44:52.301Z,95668.08
2018-08-10T15:47:18.909Z,95666.93
2018-08-10T15:49:45.618Z,95669.09
2018-08-10T15:52:12.250Z,95665.92
2018-08-10T15:54:38.890Z,95655.01
2018-08-10T15:57:05.532Z,95658.33
2018-08-10T15:59:32.173Z,95661.74
2018-08-10T16:01:58.895Z,95660.34
2018-08-10T16:04:25.519Z,95662.25
2018-08-10T16:06:52.196Z,95671.14
2018-08-10T16:09:18.803Z,95673.34
2018-08-10T16:11:45.454Z,95672.32
2018-08-10T16:14:12.173Z,95676.34
2018-08-10T16:16:38.768Z,95678.50
2018-08-10T16:19:05.419Z,95674.77
2018-08-10T16:21:32.067Z,95673.39
2018-08-10T16:23:58.740Z,95671.34
2018-08-10T16:26:25.403Z,95680.23
2018-08-10T16:28:52.047Z,95675.67
2018-08-10T16:31:18.699Z,95678.50
2018-08-10T16:33:45.384Z,95679.27
2018-08-10T16:36:12.102Z,95677.91
2018-08-10T16:38:38.797Z,95681.84
2018-08-10T16:41:05.449Z,95679.17
2018-08-10T16:43:32.103Z,95683.11
2018-08-10T16:45:58.754Z,95681.00
2018-08-10T16:48:25.402Z,95683.61
2018-08-10T16:50:52.030Z,95689.91
2018-08-10T16:53:18.713Z,95695.07
2018-08-10T16:55:47.479Z,95689.49
2018-08-10T16:58:12.012Z,95687.59
2018-08-10T17:00:38.657Z,95691.98
2018-08-10T17:03:05.344Z,95694.27
2018-08-10T17:05:31.986Z,95703.39
2018-08-10T17:07:58.659Z,95700.39
2018-08-10T17:10:25.293Z,95702.17
2018-08-10T17:12:51.928Z,95705.89
2018-08-10T17:15:18.613Z,95706.19
2018-08-10T17:17:45.270Z,95709.09
2018-08-10T17:20:11.908Z,95705.12
2018-08-10T17:22:38.553Z,95707.75
2018-08-10T17:25:05.195Z,95711.67
2018-08-10T17:27:31.851Z,95709.30
2018-08-10T17:29:58.528Z,95715.80
2018-08-10T17:32:25.167Z,95715.55
2018-08-10T17:34:51.851Z,95708.97
2018-08-10T17:37:18.492Z,95705.54
2018-08-10T17:39:45.120Z,95704.81
2018-08-10T17:42:11.809Z,95709.22
2018-08-10T17:44:38.444Z,95713.19
2018-08-10T17:47:05.112Z,95721.05
2018-08-10T17:49:31.771Z,95725.01
2018-08-10T17:51:58.424Z,95723.58
2018-08-10T17:54:25.073Z,95724.83
2018-08-10T17:56:51.705Z,95727.45
2018-08-10T17:59:18.405Z,95735.69
2018-08-10T18:01:45.031Z,95735.66
2018-08-10T18:04:11.668Z,95738.89
2018-08-10T18:06:38.314Z,95745.90
2018-08-10T18:09:04.940Z,95751.86
2018-08-10T18:11:31.631Z,95744.38
2018-08-10T18:13:58.271Z,95743.24
2018-08-10T18:16:24.908Z,95747.45
2018-08-10T18:18:51.550Z,95745.81
2018-08-10T18:21:18.183Z,95743.84
2018-08-10T18:23:44.835Z,95754.74
2018-08-10T18:26:11.543Z,95749.67
2018-08-10T18:28:38.182Z,95751.83
2018-08-10T18:31:04.808Z,95748.56
2018-08-10T18:33:31.502Z,95751.77
2018-08-10T18:35:58.089Z,95755.56
2018-08-10T18:38:24.774Z,95755.95
2018-08-10T18:40:51.446Z,95765.89
2018-08-10T18:43:18.049Z,95769.00
2018-08-10T18:45:44.693Z,95764.34
2018-08-10T18:48:11.380Z,95774.98
2018-08-10T18:50:38.063Z,95777.13
2018-08-10T18:53:04.646Z,95777.26
2018-08-10T18:55:31.290Z,95763.31
2018-08-10T18:57:57.935Z,95777.57
2018-08-10T19:00:24.579Z,95776.58
2018-08-10T19:02:51.228Z,95776.23
2018-08-10T19:05:17.865Z,95777.75
2018-08-10T19:07:44.513Z,95779.02
2018-08-10T19:10:11.146Z,95779.04
2018-08-10T19:12:37.799Z,95780.46
2018-08-10T19:15:04.439Z,95778.05
2018-08-10T19:17:31.103Z,95773.88
2018-08-10T19:19:57.713Z,95773.04
2018-08-10T19:22:24.407Z,95773.31
2018-08-10T19:24:51.045Z,95774.91
2018-08-10T19:27:17.721Z,95782.66
2018-08-10T19:29:44.348Z,95780.00
2018-08-10T19:32:10.985Z,95780.28
2018-08-10T19:34:37.614Z,95772.33
2018-08-10T19:37:04.263Z,95772.33
2018-08-10T19:39:30.892Z,95765.90
2018-08-10T19:41:57.586Z,95771.72
2018-08-10T19:44:24.265Z,95770.80
2018-08-10T19:46:50.971Z,95775.31
2018-08-10T19:49:17.571Z,95772.39
2018-08-10T19:51:44.263Z,95765.33
2018-08-10T19:54:10.943Z,95766.80
2018-08-10T19:56:37.567Z,95768.67
2018-08-10T19:59:04.219Z,95776.58
2018-08-10T20:01:30.906Z,95769.23
2018-08-10T20:03:57.542Z,95766.89
2018-08-10T20:06:24.183Z,95769.28
2018-08-10T20:08:50.821Z,95767.00
2018-08-10T20:11:17.469Z,95762.46
2018-08-10T20:13:44.108Z,95769.93
2018-08-10T20:16:11.185Z,95752.38
2018-08-10T20:18:37.826Z,95758.91
2018-08-10T20:21:04.521Z,95760.68
2018-08-10T20:23:31.197Z,95752.60
2018-08-10T20:25:57.840Z,95749.59
2018-08-10T20:28:24.488Z,95749.19
2018-08-10T20:30:51.135Z,95747.18
2018-08-10T20:33:17.773Z,95743.91
2018-08-10T20:35:44.457Z,95749.97
2018-08-10T20:38:11.097Z,95737.14
2018-08-10T20:40:37.766Z,95751.73
2018-08-10T20:43:04.403Z,95750.62
2018-08-10T20:45:31.038Z,95745.83
2018-08-10T20:47:57.722Z,95748.84
2018-08-10T20:50:24.417Z,95745.70
2018-08-10T20:52:51.132Z,95749.14
2018-08-10T20:55:17.773Z,95746.73
2018-08-10T20:57:44.447Z,95744.25
2018-08-10T21:00:11.073Z,95745.88
2018-08-10T21:02:37.823Z,95746.51
2018-08-10T21:05:04.404Z,95743.36
2018-08-10T21:07:31.049Z,95741.98
2018-08-10T21:09:57.681Z,95740.45
2018-08-10T21:12:24.326Z,95739.96
2018-08-10T21:14:50.970Z,95741.63
2018-08-10T21:17:17.642Z,95739.45
2018-08-10T21:19:44.317Z,95739.60
2018-08-10T21:22:10.966Z,95731.86
2018-08-10T21:24:38.944Z,95734.44
2018-08-10T21:27:04.231Z,95727.60
2018-08-10T21:29:30.912Z,95727.22
2018-08-10T21:31:57.547Z,95730.13
2018-08-10T21:34:24.237Z,95731.27
2018-08-10T21:36:50.926Z,95732.30
2018-08-10T21:39:17.562Z,95738.50
2018-08-10T21:41:44.205Z,95747.34
2018-08-10T21:44:10.850Z,95750.63
2018-08-10T21:46:37.533Z,95751.05
2018-08-10T21:49:04.228Z,95749.26
2018-08-10T21:51:30.873Z,95746.73
2018-08-10T21:53:57.561Z,95750.94
2018-08-10T21:56:24.202Z,95752.08
2018-08-10T21:58:50.877Z,95758.89
2018-08-10T22:01:17.509Z,95753.97
2018-08-10T22:03:44.185Z,95762.83
2018-08-10T22:06:10.820Z,95764.59
2018-08-10T22:08:37.542Z,95761.84
2018-08-10T22:11:04.177Z,95753.48
2018-08-10T22:13:30.828Z,95749.45
2018-08-10T22:15:57.477Z,95750.21
2018-08-10T22:18:24.302Z,95744.01
2018-08-10T22:20:50.930Z,95748.30
2018-08-10T22:23:17.558Z,95750.36
2018-08-10T22:25:44.194Z,95752.12
2018-08-10T22:28:10.823Z,95755.92
2018-08-10T22:30:37.513Z,95752.40
2018-08-10T22:33:04.164Z,95766.52
2018-08-10T22:35:30.808Z,95768.44
2018-08-10T22:37:57.446Z,95766.03
2018-08-10T22:40:24.114Z,95772.19
2018-08-10T22:42:50.739Z,95771.16
2018-08-10T22:45:17.388Z,95775.04
2018-08-10T22:47:44.022Z,95773.63
2018-08-10T22:50:10.665Z,95770.84
2018-08-10T22:52:37.300Z,95769.67
2018-08-10T22:55:03.999Z,95776.11
2018-08-10T22:57:30.634Z,95768.13
2018-08-10T22:59:57.264Z,95762.16
2018-08-10T23:02:23.955Z,95768.21
2018-08-10T23:04:50.641Z,95761.13
2018-08-10T23:07:17.315Z,95766.80
2018-08-10T23:09:43.963Z,95762.66
2018-08-10T23:12:10.646Z,95758.55
2018-08-10T23:14:37.293Z,95768.17
2018-08-10T23:17:03.981Z,95762.70
2018-08-10T23:19:30.609Z,95758.80
2018-08-10T23:21:57.253Z,95755.12
2018-08-10T23:24:23.903Z,95756.62
2018-08-10T23:26:50.591Z,95757.40
2018-08-10T23:29:17.227Z,95760.31
2018-08-10T23:31:43.906Z,95766.75
2018-08-10T23:34:10.543Z,95766.27
2018-08-10T23:36:37.235Z,95767.12
2018-08-10T23:39:03.904Z,95768.52
2018-08-10T23:41:30.510Z,95773.34
2018-08-10T23:43:57.149Z,95775.60
2018-08-10T23:46:23.832Z,95777.41
2018-08-10T23:48:50.518Z,95776.56
2018-08-10T23:51:17.125Z,95774.01
2018-08-10T23:53:43.798Z,95781.51
2018-08-10T23:56:10.429Z,95781.37
2018-08-10T23:58:37.163Z,95777.45
